sensor_id;sensor_type;location;lat;lon;timestamp;P1;durP1;ratioP1;P2;durP2;ratioP2
72761;SDS011;60886;55.034;73.150;2023-02-28T00:02:10;4.80;;;1.80;;
72761;SDS011;60886;55.034;73.150;2023-02-28T00:05:12;10.05;;;2.53;;
72761;SDS011;60886;55.034;73.150;2023-02-28T00:08:26;5.70;;;1.90;;
72761;SDS011;60886;55.034;73.150;2023-02-28T00:11:32;6.22;;;2.30;;
72761;SDS011;60886;55.034;73.150;2023-02-28T00:14:34;4.70;;;1.67;;
72761;SDS011;60886;55.034;73.150;2023-02-28T00:17:35;8.13;;;2.15;;
72761;SDS011;60886;55.034;73.150;2023-02-28T00:20:48;6.18;;;2.08;;
72761;SDS011;60886;55.034;73.150;2023-02-28T00:24:01;7.00;;;2.57;;
72761;SDS011;60886;55.034;73.150;2023-02-28T00:27:13;3.62;;;1.56;;
72761;SDS011;60886;55.034;73.150;2023-02-28T00:30:25;6.13;;;2.20;;
72761;SDS011;60886;55.034;73.150;2023-02-28T00:33:32;3.73;;;1.63;;
72761;SDS011;60886;55.034;73.150;2023-02-28T00:36:39;5.13;;;1.50;;
72761;SDS011;60886;55.034;73.150;2023-02-28T00:39:41;6.45;;;2.28;;
72761;SDS011;60886;55.034;73.150;2023-02-28T00:42:43;5.20;;;1.97;;
72761;SDS011;60886;55.034;73.150;2023-02-28T00:45:52;6.25;;;2.13;;
72761;SDS011;60886;55.034;73.150;2023-02-28T00:48:53;6.53;;;2.50;;
72761;SDS011;60886;55.034;73.150;2023-02-28T00:52:10;6.15;;;2.38;;
72761;SDS011;60886;55.034;73.150;2023-02-28T00:55:11;6.53;;;2.23;;
72761;SDS011;60886;55.034;73.150;2023-02-28T00:58:18;6.40;;;2.47;;
72761;SDS011;60886;55.034;73.150;2023-02-28T01:01:24;6.28;;;2.20;;
72761;SDS011;60886;55.034;73.150;2023-02-28T01:04:36;6.32;;;2.67;;
72761;SDS011;60886;55.034;73.150;2023-02-28T01:07:38;6.57;;;2.30;;
72761;SDS011;60886;55.034;73.150;2023-02-28T01:10:39;5.38;;;2.00;;
72761;SDS011;60886;55.034;73.150;2023-02-28T01:13:42;6.23;;;1.80;;
72761;SDS011;60886;55.034;73.150;2023-02-28T01:16:46;8.75;;;2.72;;
72761;SDS011;60886;55.034;73.150;2023-02-28T01:19:53;9.40;;;2.53;;
72761;SDS011;60886;55.034;73.150;2023-02-28T01:22:59;8.25;;;3.45;;
72761;SDS011;60886;55.034;73.150;2023-02-28T01:26:09;7.30;;;2.70;;
72761;SDS011;60886;55.034;73.150;2023-02-28T01:29:14;9.13;;;2.92;;
72761;SDS011;60886;55.034;73.150;2023-02-28T01:32:20;6.70;;;2.50;;
72761;SDS011;60886;55.034;73.150;2023-02-28T01:35:21;11.47;;;3.13;;
72761;SDS011;60886;55.034;73.150;2023-02-28T01:38:23;7.13;;;2.70;;
72761;SDS011;60886;55.034;73.150;2023-02-28T01:41:35;10.07;;;2.75;;
72761;SDS011;60886;55.034;73.150;2023-02-28T01:48:15;6.82;;;2.25;;
72761;SDS011;60886;55.034;73.150;2023-02-28T01:51:19;9.95;;;2.50;;
72761;SDS011;60886;55.034;73.150;2023-02-28T01:54:29;6.40;;;2.30;;
72761;SDS011;60886;55.034;73.150;2023-02-28T01:57:33;7.32;;;2.92;;
72761;SDS011;60886;55.034;73.150;2023-02-28T02:00:38;7.53;;;2.37;;
72761;SDS011;60886;55.034;73.150;2023-02-28T02:03:41;8.25;;;2.63;;
72761;SDS011;60886;55.034;73.150;2023-02-28T02:06:55;7.45;;;2.30;;
72761;SDS011;60886;55.034;73.150;2023-02-28T02:10:04;8.75;;;2.42;;
72761;SDS011;60886;55.034;73.150;2023-02-28T02:27:48;8.05;;;2.58;;
72761;SDS011;60886;55.034;73.150;2023-02-28T02:31:09;6.20;;;1.80;;
72761;SDS011;60886;55.034;73.150;2023-02-28T02:37:43;5.65;;;2.20;;
72761;SDS011;60886;55.034;73.150;2023-02-28T02:44:22;8.60;;;2.57;;
72761;SDS011;60886;55.034;73.150;2023-02-28T02:47:31;9.27;;;2.97;;
72761;SDS011;60886;55.034;73.150;2023-02-28T02:50:38;8.57;;;3.08;;
72761;SDS011;60886;55.034;73.150;2023-02-28T02:54:08;7.63;;;2.13;;
72761;SDS011;60886;55.034;73.150;2023-02-28T02:57:21;7.67;;;1.97;;
72761;SDS011;60886;55.034;73.150;2023-02-28T03:00:46;9.48;;;2.72;;
72761;SDS011;60886;55.034;73.150;2023-02-28T03:03:49;8.70;;;2.63;;
72761;SDS011;60886;55.034;73.150;2023-02-28T03:06:51;6.63;;;2.17;;
72761;SDS011;60886;55.034;73.150;2023-02-28T03:09:56;13.30;;;3.53;;
72761;SDS011;60886;55.034;73.150;2023-02-28T03:27:17;10.86;;;3.16;;
72761;SDS011;60886;55.034;73.150;2023-02-28T03:30:34;9.50;;;2.90;;
72761;SDS011;60886;55.034;73.150;2023-02-28T03:37:11;6.13;;;2.22;;
72761;SDS011;60886;55.034;73.150;2023-02-28T03:40:17;7.77;;;3.07;;
72761;SDS011;60886;55.034;73.150;2023-02-28T03:43:24;9.07;;;2.67;;
72761;SDS011;60886;55.034;73.150;2023-02-28T03:46:31;6.93;;;2.07;;
72761;SDS011;60886;55.034;73.150;2023-02-28T03:49:52;7.78;;;2.70;;
72761;SDS011;60886;55.034;73.150;2023-02-28T03:52:58;8.00;;;2.93;;
72761;SDS011;60886;55.034;73.150;2023-02-28T03:56:06;8.75;;;3.05;;
72761;SDS011;60886;55.034;73.150;2023-02-28T03:59:25;10.10;;;3.10;;
72761;SDS011;60886;55.034;73.150;2023-02-28T04:02:33;12.97;;;2.70;;
72761;SDS011;60886;55.034;73.150;2023-02-28T04:05:44;10.77;;;3.00;;
72761;SDS011;60886;55.034;73.150;2023-02-28T04:09:00;8.18;;;2.45;;
72761;SDS011;60886;55.034;73.150;2023-02-28T04:12:10;8.47;;;2.61;;
72761;SDS011;60886;55.034;73.150;2023-02-28T04:15:11;10.13;;;2.85;;
72761;SDS011;60886;55.034;73.150;2023-02-28T04:18:19;6.68;;;2.22;;
72761;SDS011;60886;55.034;73.150;2023-02-28T04:21:25;9.13;;;2.77;;
72761;SDS011;60886;55.034;73.150;2023-02-28T04:24:27;8.40;;;2.67;;
72761;SDS011;60886;55.034;73.150;2023-02-28T04:27:36;14.43;;;3.00;;
72761;SDS011;60886;55.034;73.150;2023-02-28T04:30:37;9.13;;;2.63;;
72761;SDS011;60886;55.034;73.150;2023-02-28T04:33:44;8.38;;;2.40;;
72761;SDS011;60886;55.034;73.150;2023-02-28T04:36:45;7.40;;;2.40;;
72761;SDS011;60886;55.034;73.150;2023-02-28T04:39:49;9.23;;;2.97;;
72761;SDS011;60886;55.034;73.150;2023-02-28T04:42:51;11.00;;;2.88;;
72761;SDS011;60886;55.034;73.150;2023-02-28T04:45:52;7.72;;;2.42;;
72761;SDS011;60886;55.034;73.150;2023-02-28T04:48:57;7.95;;;2.60;;
72761;SDS011;60886;55.034;73.150;2023-02-28T04:51:59;11.20;;;3.17;;
72761;SDS011;60886;55.034;73.150;2023-02-28T04:55:00;10.23;;;3.50;;
72761;SDS011;60886;55.034;73.150;2023-02-28T04:58:04;8.05;;;2.78;;
72761;SDS011;60886;55.034;73.150;2023-02-28T05:04:23;10.15;;;3.50;;
72761;SDS011;60886;55.034;73.150;2023-02-28T05:07:25;9.10;;;3.20;;
72761;SDS011;60886;55.034;73.150;2023-02-28T05:10:26;10.95;;;2.92;;
72761;SDS011;60886;55.034;73.150;2023-02-28T05:13:27;15.60;;;2.93;;
72761;SDS011;60886;55.034;73.150;2023-02-28T05:16:34;10.43;;;2.72;;
72761;SDS011;60886;55.034;73.150;2023-02-28T05:19:35;9.43;;;3.13;;
72761;SDS011;60886;55.034;73.150;2023-02-28T05:22:37;9.63;;;3.38;;
72761;SDS011;60886;55.034;73.150;2023-02-28T05:25:39;11.00;;;3.58;;
72761;SDS011;60886;55.034;73.150;2023-02-28T05:28:51;10.15;;;3.05;;
72761;SDS011;60886;55.034;73.150;2023-02-28T05:31:52;12.82;;;3.45;;
72761;SDS011;60886;55.034;73.150;2023-02-28T05:34:54;10.88;;;3.33;;
72761;SDS011;60886;55.034;73.150;2023-02-28T05:37:55;13.57;;;3.60;;
72761;SDS011;60886;55.034;73.150;2023-02-28T05:40:56;11.25;;;3.78;;
72761;SDS011;60886;55.034;73.150;2023-02-28T05:43:58;10.97;;;3.93;;
72761;SDS011;60886;55.034;73.150;2023-02-28T05:47:10;12.00;;;3.78;;
72761;SDS011;60886;55.034;73.150;2023-02-28T05:50:18;11.65;;;3.92;;
72761;SDS011;60886;55.034;73.150;2023-02-28T05:53:26;9.47;;;2.70;;
72761;SDS011;60886;55.034;73.150;2023-02-28T05:56:27;12.15;;;3.97;;
72761;SDS011;60886;55.034;73.150;2023-02-28T05:59:29;10.73;;;4.00;;
72761;SDS011;60886;55.034;73.150;2023-02-28T06:02:36;13.30;;;4.55;;
72761;SDS011;60886;55.034;73.150;2023-02-28T06:05:39;12.60;;;4.03;;
72761;SDS011;60886;55.034;73.150;2023-02-28T06:08:45;11.82;;;3.60;;
72761;SDS011;60886;55.034;73.150;2023-02-28T06:11:51;13.65;;;3.90;;
72761;SDS011;60886;55.034;73.150;2023-02-28T06:15:02;13.70;;;4.15;;
72761;SDS011;60886;55.034;73.150;2023-02-28T06:18:05;16.03;;;4.40;;
72761;SDS011;60886;55.034;73.150;2023-02-28T06:21:06;10.63;;;3.72;;
72761;SDS011;60886;55.034;73.150;2023-02-28T06:24:09;9.93;;;3.37;;
72761;SDS011;60886;55.034;73.150;2023-02-28T06:27:11;9.82;;;3.58;;
72761;SDS011;60886;55.034;73.150;2023-02-28T06:30:23;12.70;;;4.43;;
72761;SDS011;60886;55.034;73.150;2023-02-28T06:33:27;13.60;;;4.80;;
72761;SDS011;60886;55.034;73.150;2023-02-28T06:36:28;13.10;;;4.90;;
72761;SDS011;60886;55.034;73.150;2023-02-28T06:39:30;13.23;;;4.55;;
72761;SDS011;60886;55.034;73.150;2023-02-28T06:42:32;14.37;;;4.80;;
72761;SDS011;60886;55.034;73.150;2023-02-28T06:45:42;10.07;;;3.90;;
72761;SDS011;60886;55.034;73.150;2023-02-28T06:48:54;12.10;;;4.27;;
72761;SDS011;60886;55.034;73.150;2023-02-28T06:51:55;17.13;;;5.25;;
72761;SDS011;60886;55.034;73.150;2023-02-28T06:54:57;14.33;;;4.63;;
72761;SDS011;60886;55.034;73.150;2023-02-28T06:58:01;13.25;;;4.45;;
72761;SDS011;60886;55.034;73.150;2023-02-28T07:01:02;15.65;;;4.45;;
72761;SDS011;60886;55.034;73.150;2023-02-28T07:04:04;14.10;;;4.77;;
72761;SDS011;60886;55.034;73.150;2023-02-28T07:07:10;15.27;;;4.82;;
72761;SDS011;60886;55.034;73.150;2023-02-28T07:10:11;12.15;;;4.40;;
72761;SDS011;60886;55.034;73.150;2023-02-28T07:13:19;15.20;;;4.80;;
72761;SDS011;60886;55.034;73.150;2023-02-28T07:16:22;14.70;;;4.60;;
72761;SDS011;60886;55.034;73.150;2023-02-28T07:19:25;13.55;;;4.50;;
72761;SDS011;60886;55.034;73.150;2023-02-28T07:22:27;17.50;;;5.80;;
72761;SDS011;60886;55.034;73.150;2023-02-28T07:25:39;12.85;;;4.72;;
72761;SDS011;60886;55.034;73.150;2023-02-28T07:28:41;10.57;;;3.95;;
72761;SDS011;60886;55.034;73.150;2023-02-28T07:31:53;12.83;;;4.57;;
72761;SDS011;60886;55.034;73.150;2023-02-28T07:34:54;15.65;;;4.68;;
72761;SDS011;60886;55.034;73.150;2023-02-28T07:37:59;14.03;;;4.50;;
72761;SDS011;60886;55.034;73.150;2023-02-28T07:41:01;16.17;;;5.40;;
72761;SDS011;60886;55.034;73.150;2023-02-28T07:44:06;15.27;;;4.55;;
72761;SDS011;60886;55.034;73.150;2023-02-28T07:47:10;14.35;;;5.13;;
72761;SDS011;60886;55.034;73.150;2023-02-28T07:50:12;14.23;;;4.70;;
72761;SDS011;60886;55.034;73.150;2023-02-28T07:53:15;15.07;;;5.10;;
72761;SDS011;60886;55.034;73.150;2023-02-28T07:56:19;13.50;;;5.30;;
72761;SDS011;60886;55.034;73.150;2023-02-28T07:59:22;14.77;;;4.60;;
72761;SDS011;60886;55.034;73.150;2023-02-28T08:02:23;14.48;;;5.13;;
72761;SDS011;60886;55.034;73.150;2023-02-28T08:05:24;13.80;;;5.20;;
72761;SDS011;60886;55.034;73.150;2023-02-28T08:08:26;16.60;;;4.57;;
72761;SDS011;60886;55.034;73.150;2023-02-28T08:11:41;14.02;;;5.45;;
72761;SDS011;60886;55.034;73.150;2023-02-28T08:14:48;18.57;;;5.80;;
72761;SDS011;60886;55.034;73.150;2023-02-28T08:17:50;17.52;;;5.65;;
72761;SDS011;60886;55.034;73.150;2023-02-28T08:20:51;14.32;;;4.85;;
72761;SDS011;60886;55.034;73.150;2023-02-28T08:23:52;19.63;;;5.67;;
72761;SDS011;60886;55.034;73.150;2023-02-28T08:26:54;14.30;;;5.30;;
72761;SDS011;60886;55.034;73.150;2023-02-28T08:29:56;14.13;;;4.90;;
72761;SDS011;60886;55.034;73.150;2023-02-28T08:33:02;12.50;;;4.03;;
72761;SDS011;60886;55.034;73.150;2023-02-28T08:36:04;16.40;;;5.82;;
72761;SDS011;60886;55.034;73.150;2023-02-28T08:39:16;17.30;;;5.75;;
72761;SDS011;60886;55.034;73.150;2023-02-28T08:42:18;16.33;;;5.75;;
72761;SDS011;60886;55.034;73.150;2023-02-28T08:45:19;16.58;;;5.47;;
72761;SDS011;60886;55.034;73.150;2023-02-28T08:48:27;17.30;;;5.70;;
72761;SDS011;60886;55.034;73.150;2023-02-28T08:51:30;21.60;;;5.70;;
72761;SDS011;60886;55.034;73.150;2023-02-28T08:54:31;15.90;;;5.57;;
72761;SDS011;60886;55.034;73.150;2023-02-28T08:57:34;20.13;;;6.43;;
72761;SDS011;60886;55.034;73.150;2023-02-28T09:00:36;16.50;;;5.60;;
72761;SDS011;60886;55.034;73.150;2023-02-28T09:03:37;14.52;;;5.35;;
72761;SDS011;60886;55.034;73.150;2023-02-28T09:06:39;12.95;;;4.47;;
72761;SDS011;60886;55.034;73.150;2023-02-28T09:09:41;14.77;;;4.77;;
72761;SDS011;60886;55.034;73.150;2023-02-28T09:13:03;13.87;;;4.87;;
72761;SDS011;60886;55.034;73.150;2023-02-28T09:16:05;16.65;;;5.80;;
72761;SDS011;60886;55.034;73.150;2023-02-28T09:19:10;17.63;;;5.70;;
72761;SDS011;60886;55.034;73.150;2023-02-28T09:22:12;16.50;;;5.17;;
72761;SDS011;60886;55.034;73.150;2023-02-28T09:25:14;14.90;;;4.68;;
72761;SDS011;60886;55.034;73.150;2023-02-28T09:28:25;13.43;;;5.13;;
72761;SDS011;60886;55.034;73.150;2023-02-28T09:31:27;14.02;;;4.85;;
72761;SDS011;60886;55.034;73.150;2023-02-28T09:34:39;18.13;;;4.87;;
72761;SDS011;60886;55.034;73.150;2023-02-28T09:37:40;20.00;;;5.45;;
72761;SDS011;60886;55.034;73.150;2023-02-28T09:40:53;15.90;;;4.27;;
72761;SDS011;60886;55.034;73.150;2023-02-28T09:43:57;16.80;;;5.90;;
72761;SDS011;60886;55.034;73.150;2023-02-28T09:47:12;15.75;;;5.43;;
72761;SDS011;60886;55.034;73.150;2023-02-28T09:50:45;14.40;;;5.20;;
72761;SDS011;60886;55.034;73.150;2023-02-28T09:53:55;19.08;;;6.05;;
72761;SDS011;60886;55.034;73.150;2023-02-28T09:56:59;18.85;;;5.75;;
72761;SDS011;60886;55.034;73.150;2023-02-28T10:06:57;20.10;;;5.93;;
72761;SDS011;60886;55.034;73.150;2023-02-28T10:09:59;15.30;;;4.63;;
72761;SDS011;60886;55.034;73.150;2023-02-28T10:13:15;17.73;;;5.53;;
72761;SDS011;60886;55.034;73.150;2023-02-28T10:20:14;15.30;;;5.30;;
72761;SDS011;60886;55.034;73.150;2023-02-28T10:23:28;17.55;;;5.93;;
72761;SDS011;60886;55.034;73.150;2023-02-28T10:26:35;16.42;;;5.75;;
72761;SDS011;60886;55.034;73.150;2023-02-28T10:29:43;19.13;;;6.60;;
72761;SDS011;60886;55.034;73.150;2023-02-28T10:32:50;21.08;;;6.30;;
72761;SDS011;60886;55.034;73.150;2023-02-28T10:35:54;21.27;;;6.05;;
72761;SDS011;60886;55.034;73.150;2023-02-28T10:42:39;18.30;;;6.60;;
72761;SDS011;60886;55.034;73.150;2023-02-28T10:45:55;19.75;;;6.60;;
72761;SDS011;60886;55.034;73.150;2023-02-28T10:52:10;27.38;;;9.35;;
72761;SDS011;60886;55.034;73.150;2023-02-28T10:55:15;22.05;;;7.10;;
72761;SDS011;60886;55.034;73.150;2023-02-28T10:58:54;23.30;;;7.15;;
72761;SDS011;60886;55.034;73.150;2023-02-28T11:01:53;21.65;;;6.28;;
72761;SDS011;60886;55.034;73.150;2023-02-28T11:04:55;18.50;;;6.40;;
72761;SDS011;60886;55.034;73.150;2023-02-28T11:11:29;18.75;;;6.60;;
72761;SDS011;60886;55.034;73.150;2023-02-28T11:14:47;15.50;;;5.70;;
72761;SDS011;60886;55.034;73.150;2023-02-28T11:17:58;14.20;;;5.68;;
72761;SDS011;60886;55.034;73.150;2023-02-28T11:21:02;18.45;;;6.13;;
72761;SDS011;60886;55.034;73.150;2023-02-28T11:24:06;17.17;;;6.50;;
72761;SDS011;60886;55.034;73.150;2023-02-28T11:27:26;17.63;;;6.32;;
72761;SDS011;60886;55.034;73.150;2023-02-28T11:30:46;19.07;;;6.97;;
72761;SDS011;60886;55.034;73.150;2023-02-28T11:34:25;15.67;;;6.03;;
72761;SDS011;60886;55.034;73.150;2023-02-28T11:37:34;16.23;;;6.20;;
72761;SDS011;60886;55.034;73.150;2023-02-28T11:40:55;17.08;;;6.50;;
72761;SDS011;60886;55.034;73.150;2023-02-28T11:54:22;14.77;;;5.90;;
72761;SDS011;60886;55.034;73.150;2023-02-28T11:57:31;14.32;;;5.25;;
72761;SDS011;60886;55.034;73.150;2023-02-28T12:11:23;15.07;;;5.10;;
72761;SDS011;60886;55.034;73.150;2023-02-28T12:24:55;15.68;;;5.38;;
72761;SDS011;60886;55.034;73.150;2023-02-28T12:28:01;14.50;;;5.70;;
72761;SDS011;60886;55.034;73.150;2023-02-28T12:31:10;15.45;;;5.65;;
72761;SDS011;60886;55.034;73.150;2023-02-28T12:34:20;14.23;;;5.77;;
72761;SDS011;60886;55.034;73.150;2023-02-28T12:38:01;11.90;;;5.03;;
72761;SDS011;60886;55.034;73.150;2023-02-28T12:41:03;17.77;;;5.78;;
72761;SDS011;60886;55.034;73.150;2023-02-28T12:48:06;16.90;;;6.20;;
72761;SDS011;60886;55.034;73.150;2023-02-28T12:51:20;14.25;;;6.00;;
72761;SDS011;60886;55.034;73.150;2023-02-28T12:57:50;15.18;;;6.22;;
72761;SDS011;60886;55.034;73.150;2023-02-28T13:14:38;17.45;;;6.32;;
72761;SDS011;60886;55.034;73.150;2023-02-28T13:17:40;16.07;;;6.10;;
72761;SDS011;60886;55.034;73.150;2023-02-28T13:20:46;14.07;;;5.40;;
72761;SDS011;60886;55.034;73.150;2023-02-28T13:27:11;15.50;;;6.07;;
72761;SDS011;60886;55.034;73.150;2023-02-28T13:40:33;15.13;;;6.40;;
72761;SDS011;60886;55.034;73.150;2023-02-28T13:47:36;13.87;;;5.30;;
72761;SDS011;60886;55.034;73.150;2023-02-28T13:50:41;17.00;;;6.43;;
72761;SDS011;60886;55.034;73.150;2023-02-28T13:53:58;16.77;;;6.40;;
72761;SDS011;60886;55.034;73.150;2023-02-28T14:00:57;14.60;;;6.10;;
72761;SDS011;60886;55.034;73.150;2023-02-28T14:07:48;17.70;;;6.35;;
72761;SDS011;60886;55.034;73.150;2023-02-28T14:11:03;18.88;;;7.63;;
72761;SDS011;60886;55.034;73.150;2023-02-28T14:14:08;16.70;;;6.87;;
72761;SDS011;60886;55.034;73.150;2023-02-28T14:17:40;14.98;;;6.18;;
72761;SDS011;60886;55.034;73.150;2023-02-28T14:20:42;15.07;;;6.82;;
72761;SDS011;60886;55.034;73.150;2023-02-28T14:27:28;17.83;;;6.05;;
72761;SDS011;60886;55.034;73.150;2023-02-28T14:37:10;15.20;;;5.63;;
72761;SDS011;60886;55.034;73.150;2023-02-28T14:40:20;15.90;;;5.93;;
72761;SDS011;60886;55.034;73.150;2023-02-28T14:43:28;17.95;;;6.18;;
72761;SDS011;60886;55.034;73.150;2023-02-28T14:46:36;15.77;;;6.30;;
72761;SDS011;60886;55.034;73.150;2023-02-28T14:49:44;14.03;;;5.70;;
72761;SDS011;60886;55.034;73.150;2023-02-28T14:52:51;15.13;;;6.22;;
72761;SDS011;60886;55.034;73.150;2023-02-28T14:55:54;14.70;;;5.88;;
72761;SDS011;60886;55.034;73.150;2023-02-28T14:58:56;15.30;;;6.10;;
72761;SDS011;60886;55.034;73.150;2023-02-28T15:05:31;20.40;;;7.27;;
72761;SDS011;60886;55.034;73.150;2023-02-28T15:08:34;17.23;;;7.13;;
72761;SDS011;60886;55.034;73.150;2023-02-28T15:11:38;15.93;;;6.85;;
72761;SDS011;60886;55.034;73.150;2023-02-28T15:14:42;16.90;;;6.43;;
72761;SDS011;60886;55.034;73.150;2023-02-28T15:17:45;14.35;;;5.85;;
72761;SDS011;60886;55.034;73.150;2023-02-28T15:20:51;14.45;;;6.07;;
72761;SDS011;60886;55.034;73.150;2023-02-28T15:23:57;15.13;;;7.10;;
72761;SDS011;60886;55.034;73.150;2023-02-28T15:27:27;14.85;;;6.35;;
72761;SDS011;60886;55.034;73.150;2023-02-28T15:30:32;17.57;;;6.50;;
72761;SDS011;60886;55.034;73.150;2023-02-28T15:33:34;14.48;;;6.32;;
72761;SDS011;60886;55.034;73.150;2023-02-28T15:36:36;15.32;;;6.13;;
72761;SDS011;60886;55.034;73.150;2023-02-28T15:39:42;16.35;;;6.38;;
72761;SDS011;60886;55.034;73.150;2023-02-28T15:43:04;13.80;;;5.22;;
72761;SDS011;60886;55.034;73.150;2023-02-28T15:46:19;14.90;;;6.22;;
72761;SDS011;60886;55.034;73.150;2023-02-28T15:49:21;16.65;;;6.40;;
72761;SDS011;60886;55.034;73.150;2023-02-28T15:55:43;16.88;;;6.50;;
72761;SDS011;60886;55.034;73.150;2023-02-28T15:58:45;15.17;;;6.47;;
72761;SDS011;60886;55.034;73.150;2023-02-28T16:05:29;17.17;;;6.50;;
72761;SDS011;60886;55.034;73.150;2023-02-28T16:08:32;16.95;;;6.88;;
72761;SDS011;60886;55.034;73.150;2023-02-28T16:11:35;15.85;;;6.15;;
72761;SDS011;60886;55.034;73.150;2023-02-28T16:14:51;15.53;;;6.03;;
72761;SDS011;60886;55.034;73.150;2023-02-28T16:17:55;16.33;;;7.00;;
72761;SDS011;60886;55.034;73.150;2023-02-28T16:21:08;15.55;;;6.97;;
72761;SDS011;60886;55.034;73.150;2023-02-28T16:24:10;18.47;;;6.60;;
72761;SDS011;60886;55.034;73.150;2023-02-28T16:27:16;18.10;;;6.81;;
72761;SDS011;60886;55.034;73.150;2023-02-28T16:30:23;13.95;;;5.75;;
72761;SDS011;60886;55.034;73.150;2023-02-28T16:33:27;17.73;;;6.30;;
72761;SDS011;60886;55.034;73.150;2023-02-28T16:36:30;17.45;;;6.45;;
72761;SDS011;60886;55.034;73.150;2023-02-28T16:39:39;14.68;;;6.00;;
72761;SDS011;60886;55.034;73.150;2023-02-28T16:42:43;13.90;;;5.13;;
72761;SDS011;60886;55.034;73.150;2023-02-28T16:45:47;18.02;;;6.43;;
72761;SDS011;60886;55.034;73.150;2023-02-28T16:48:59;16.48;;;6.70;;
72761;SDS011;60886;55.034;73.150;2023-02-28T16:52:10;16.24;;;6.44;;
72761;SDS011;60886;55.034;73.150;2023-02-28T16:55:18;18.55;;;6.78;;
72761;SDS011;60886;55.034;73.150;2023-02-28T16:58:30;16.15;;;6.60;;
72761;SDS011;60886;55.034;73.150;2023-02-28T17:01:34;16.90;;;6.90;;
72761;SDS011;60886;55.034;73.150;2023-02-28T17:04:38;15.60;;;6.40;;
72761;SDS011;60886;55.034;73.150;2023-02-28T17:07:41;16.08;;;5.93;;
72761;SDS011;60886;55.034;73.150;2023-02-28T17:10:53;16.48;;;6.72;;
72761;SDS011;60886;55.034;73.150;2023-02-28T17:13:55;16.03;;;6.53;;
72761;SDS011;60886;55.034;73.150;2023-02-28T17:16:57;21.05;;;6.97;;
72761;SDS011;60886;55.034;73.150;2023-02-28T17:19:59;17.67;;;6.97;;
72761;SDS011;60886;55.034;73.150;2023-02-28T17:23:01;18.20;;;6.63;;
72761;SDS011;60886;55.034;73.150;2023-02-28T17:26:03;17.45;;;6.43;;
72761;SDS011;60886;55.034;73.150;2023-02-28T17:29:13;18.83;;;7.10;;
72761;SDS011;60886;55.034;73.150;2023-02-28T17:32:17;14.00;;;5.93;;
72761;SDS011;60886;55.034;73.150;2023-02-28T17:35:23;17.42;;;6.70;;
72761;SDS011;60886;55.034;73.150;2023-02-28T17:38:25;22.40;;;7.73;;
72761;SDS011;60886;55.034;73.150;2023-02-28T17:41:27;18.27;;;6.43;;
72761;SDS011;60886;55.034;73.150;2023-02-28T17:44:31;15.53;;;6.13;;
72761;SDS011;60886;55.034;73.150;2023-02-28T17:47:43;17.55;;;7.13;;
72761;SDS011;60886;55.034;73.150;2023-02-28T17:50:48;17.73;;;7.23;;
72761;SDS011;60886;55.034;73.150;2023-02-28T17:53:50;20.20;;;7.68;;
72761;SDS011;60886;55.034;73.150;2023-02-28T17:57:14;18.17;;;6.47;;
72761;SDS011;60886;55.034;73.150;2023-02-28T18:00:17;18.77;;;7.93;;
72761;SDS011;60886;55.034;73.150;2023-02-28T18:03:19;18.35;;;7.07;;
72761;SDS011;60886;55.034;73.150;2023-02-28T18:06:24;18.25;;;7.50;;
72761;SDS011;60886;55.034;73.150;2023-02-28T18:09:33;17.10;;;7.27;;
72761;SDS011;60886;55.034;73.150;2023-02-28T18:12:34;18.23;;;7.23;;
72761;SDS011;60886;55.034;73.150;2023-02-28T18:15:36;18.30;;;7.43;;
72761;SDS011;60886;55.034;73.150;2023-02-28T18:18:37;22.33;;;8.32;;
72761;SDS011;60886;55.034;73.150;2023-02-28T18:21:51;18.67;;;6.85;;
72761;SDS011;60886;55.034;73.150;2023-02-28T18:24:53;19.58;;;7.50;;
72761;SDS011;60886;55.034;73.150;2023-02-28T18:27:55;18.23;;;7.13;;
72761;SDS011;60886;55.034;73.150;2023-02-28T18:31:06;19.02;;;6.95;;
72761;SDS011;60886;55.034;73.150;2023-02-28T18:34:15;16.67;;;6.87;;
72761;SDS011;60886;55.034;73.150;2023-02-28T18:37:27;16.20;;;6.77;;
72761;SDS011;60886;55.034;73.150;2023-02-28T18:40:39;16.80;;;6.90;;
72761;SDS011;60886;55.034;73.150;2023-02-28T18:43:42;16.30;;;6.63;;
72761;SDS011;60886;55.034;73.150;2023-02-28T18:46:44;17.08;;;6.47;;
72761;SDS011;60886;55.034;73.150;2023-02-28T18:49:45;16.37;;;6.87;;
72761;SDS011;60886;55.034;73.150;2023-02-28T18:52:51;17.00;;;6.40;;
72761;SDS011;60886;55.034;73.150;2023-02-28T18:55:54;17.23;;;6.38;;
72761;SDS011;60886;55.034;73.150;2023-02-28T18:59:00;16.27;;;6.57;;
72761;SDS011;60886;55.034;73.150;2023-02-28T19:02:09;15.63;;;6.13;;
72761;SDS011;60886;55.034;73.150;2023-02-28T19:05:15;17.35;;;7.20;;
72761;SDS011;60886;55.034;73.150;2023-02-28T19:08:17;17.20;;;6.70;;
72761;SDS011;60886;55.034;73.150;2023-02-28T19:11:19;17.63;;;7.53;;
72761;SDS011;60886;55.034;73.150;2023-02-28T19:14:25;18.23;;;6.80;;
72761;SDS011;60886;55.034;73.150;2023-02-28T19:17:33;16.60;;;6.57;;
72761;SDS011;60886;55.034;73.150;2023-02-28T19:20:36;18.48;;;7.70;;
72761;SDS011;60886;55.034;73.150;2023-02-28T19:23:38;15.10;;;6.00;;
72761;SDS011;60886;55.034;73.150;2023-02-28T19:26:50;15.70;;;6.63;;
72761;SDS011;60886;55.034;73.150;2023-02-28T19:29:52;14.60;;;6.13;;
72761;SDS011;60886;55.034;73.150;2023-02-28T19:32:53;14.00;;;5.85;;
72761;SDS011;60886;55.034;73.150;2023-02-28T19:35:58;15.05;;;6.20;;
72761;SDS011;60886;55.034;73.150;2023-02-28T19:39:00;11.73;;;4.20;;
72761;SDS011;60886;55.034;73.150;2023-02-28T19:42:13;11.30;;;4.65;;
72761;SDS011;60886;55.034;73.150;2023-02-28T19:45:22;14.82;;;6.10;;
72761;SDS011;60886;55.034;73.150;2023-02-28T19:48:23;13.75;;;5.63;;
72761;SDS011;60886;55.034;73.150;2023-02-28T19:51:32;13.80;;;5.80;;
72761;SDS011;60886;55.034;73.150;2023-02-28T19:54:34;15.35;;;6.05;;
72761;SDS011;60886;55.034;73.150;2023-02-28T19:57:35;15.70;;;6.15;;
72761;SDS011;60886;55.034;73.150;2023-02-28T20:00:37;14.75;;;6.18;;
72761;SDS011;60886;55.034;73.150;2023-02-28T20:03:38;14.25;;;4.93;;
72761;SDS011;60886;55.034;73.150;2023-02-28T20:06:40;11.88;;;4.95;;
72761;SDS011;60886;55.034;73.150;2023-02-28T20:09:41;12.63;;;5.00;;
72761;SDS011;60886;55.034;73.150;2023-02-28T20:12:49;11.75;;;5.30;;
72761;SDS011;60886;55.034;73.150;2023-02-28T20:15:57;12.77;;;5.35;;
72761;SDS011;60886;55.034;73.150;2023-02-28T20:19:00;11.55;;;4.32;;
72761;SDS011;60886;55.034;73.150;2023-02-28T20:22:09;13.51;;;5.54;;
72761;SDS011;60886;55.034;73.150;2023-02-28T20:25:10;14.93;;;5.28;;
72761;SDS011;60886;55.034;73.150;2023-02-28T20:28:23;12.43;;;4.67;;
72761;SDS011;60886;55.034;73.150;2023-02-28T20:31:25;12.02;;;5.03;;
72761;SDS011;60886;55.034;73.150;2023-02-28T20:34:27;12.35;;;5.20;;
72761;SDS011;60886;55.034;73.150;2023-02-28T20:37:39;12.30;;;4.83;;
72761;SDS011;60886;55.034;73.150;2023-02-28T20:40:53;12.63;;;5.43;;
72761;SDS011;60886;55.034;73.150;2023-02-28T20:43:56;12.80;;;5.57;;
72761;SDS011;60886;55.034;73.150;2023-02-28T20:47:09;12.32;;;5.32;;
72761;SDS011;60886;55.034;73.150;2023-02-28T20:50:21;11.25;;;4.80;;
72761;SDS011;60886;55.034;73.150;2023-02-28T20:53:23;12.60;;;4.83;;
72761;SDS011;60886;55.034;73.150;2023-02-28T20:56:26;11.13;;;4.97;;
72761;SDS011;60886;55.034;73.150;2023-02-28T20:59:27;12.45;;;5.38;;